map of YUM home
YUM - Airport
Location
City:  Yuma, Arizona, United States
Name:Yuma MCAS/Yuma International Airport
ICAO:KNYL
IATA:YUM
FAA LID:NYL

Details
Type:Airport (Part 139 Class I)
Use:Public/Civil, Military, International (customs port of entry)
Latitude:3239'24"N (32.656574)
Longitude:11436'22"W (-114.605986)
Datum:WGS 1984
Elevation:213 ft (65 m)
Variation:10.91E (WMM2015 magnetic declination)
-0.09 annual change
Runways:4
Longest:13300 × 200 ft (4054 × 61 m), paved

Time
Time Zone:UTC-7
Local Time:

Weather
METAR:KNYL 120957Z AUTO 00000KT 10SM CLR 13/M14 A3020 RMK AO2 SLP224 T01281139 $

Related Locations
Nearby:
Farthest:RRG: 11533 mi / 18561 km
Plaine Corail [Sir Gatan Duval Airport (Plaine Corail Airport)], Rodrigues Island, MU

Find:

   beyond  
but within

Other Information
Maps:
NOTAMs:
Links:
Sources:

  
flag of United States
flag of Arizona
  

Airport Diagram

Airport diagram for YUM

Airport diagram PDF

Sectional Chart

Flight Planning
at skyvector.com

Satellite Image

Google Maps Satellite view

 

Copyright © 2004-2017 Karl L. Swartz. All rights reserved.
The Great Circle Mapper name and logo are trademarks of the Great Circle Mapper.
All other trademarks mentioned herein belong to their respective owners.
Please see credits for attibutions and further copyright information.

  Follow gcmap on Facebook Follow gcmap on Twitter Follow gcmap on Google+ GCmap on LinkedIn

hCard Microformat

Geo Microformat